sensor_id;sensor_type;location;lat;lon;timestamp;pressure;altitude;pressure_sealevel;temperature
56286;BMP180;42191;47.562;9.686;2023-02-01T00:02:05;97638.00;;;8.70
56286;BMP180;42191;47.562;9.686;2023-02-01T00:04:31;97638.00;;;8.70
56286;BMP180;42191;47.562;9.686;2023-02-01T00:06:57;97639.00;;;8.70
56286;BMP180;42191;47.562;9.686;2023-02-01T00:09:24;97643.00;;;8.70
56286;BMP180;42191;47.562;9.686;2023-02-01T00:11:50;97643.00;;;8.70
56286;BMP180;42191;47.562;9.686;2023-02-01T00:14:16;97641.00;;;8.70
56286;BMP180;42191;47.562;9.686;2023-02-01T00:16:43;97647.00;;;8.80
56286;BMP180;42191;47.562;9.686;2023-02-01T00:19:14;97641.00;;;8.80
56286;BMP180;42191;47.562;9.686;2023-02-01T00:21:41;97635.00;;;8.80
56286;BMP180;42191;47.562;9.686;2023-02-01T00:24:08;97651.00;;;8.90
56286;BMP180;42191;47.562;9.686;2023-02-01T00:26:45;97645.00;;;8.90
56286;BMP180;42191;47.562;9.686;2023-02-01T00:29:13;97642.00;;;8.90
56286;BMP180;42191;47.562;9.686;2023-02-01T00:31:40;97639.00;;;8.90
56286;BMP180;42191;47.562;9.686;2023-02-01T00:34:07;97642.00;;;8.90
56286;BMP180;42191;47.562;9.686;2023-02-01T00:36:34;97635.00;;;8.90
56286;BMP180;42191;47.562;9.686;2023-02-01T00:39:00;97629.00;;;8.90
56286;BMP180;42191;47.562;9.686;2023-02-01T00:41:26;97636.00;;;8.90
56286;BMP180;42191;47.562;9.686;2023-02-01T00:43:52;97634.00;;;8.90
56286;BMP180;42191;47.562;9.686;2023-02-01T00:46:20;97640.00;;;8.90
56286;BMP180;42191;47.562;9.686;2023-02-01T00:48:47;97633.00;;;8.90
56286;BMP180;42191;47.562;9.686;2023-02-01T00:51:19;97623.00;;;8.90
56286;BMP180;42191;47.562;9.686;2023-02-01T00:53:46;97618.00;;;8.90
56286;BMP180;42191;47.562;9.686;2023-02-01T00:56:13;97623.00;;;8.90
56286;BMP180;42191;47.562;9.686;2023-02-01T00:58:39;97620.00;;;8.90
56286;BMP180;42191;47.562;9.686;2023-02-01T01:01:11;97614.00;;;8.90
56286;BMP180;42191;47.562;9.686;2023-02-01T01:03:40;97618.00;;;8.90
56286;BMP180;42191;47.562;9.686;2023-02-01T01:06:10;97620.00;;;8.90
56286;BMP180;42191;47.562;9.686;2023-02-01T01:08:37;97620.00;;;9.00
56286;BMP180;42191;47.562;9.686;2023-02-01T01:11:14;97618.00;;;9.00
56286;BMP180;42191;47.562;9.686;2023-02-01T01:13:41;97615.00;;;9.00
56286;BMP180;42191;47.562;9.686;2023-02-01T01:16:08;97618.00;;;9.00
56286;BMP180;42191;47.562;9.686;2023-02-01T01:18:35;97615.00;;;9.00
56286;BMP180;42191;47.562;9.686;2023-02-01T01:21:04;97628.00;;;9.00
56286;BMP180;42191;47.562;9.686;2023-02-01T01:23:30;97613.00;;;9.00
56286;BMP180;42191;47.562;9.686;2023-02-01T01:25:56;97610.00;;;9.00
56286;BMP180;42191;47.562;9.686;2023-02-01T01:28:22;97621.00;;;9.00
56286;BMP180;42191;47.562;9.686;2023-02-01T01:30:48;97612.00;;;9.00
56286;BMP180;42191;47.562;9.686;2023-02-01T01:33:15;97622.00;;;9.00
56286;BMP180;42191;47.562;9.686;2023-02-01T01:35:42;97619.00;;;9.00
56286;BMP180;42191;47.562;9.686;2023-02-01T01:38:10;97618.00;;;9.00
56286;BMP180;42191;47.562;9.686;2023-02-01T01:40:36;97604.00;;;9.00
56286;BMP180;42191;47.562;9.686;2023-02-01T01:43:02;97607.00;;;9.00
56286;BMP180;42191;47.562;9.686;2023-02-01T01:45:30;97606.00;;;9.00
56286;BMP180;42191;47.562;9.686;2023-02-01T01:48:08;97599.00;;;9.00
56286;BMP180;42191;47.562;9.686;2023-02-01T01:51:13;97600.00;;;9.00
56286;BMP180;42191;47.562;9.686;2023-02-01T01:53:42;97603.00;;;9.00
56286;BMP180;42191;47.562;9.686;2023-02-01T01:56:10;97604.00;;;9.00
56286;BMP180;42191;47.562;9.686;2023-02-01T01:58:37;97600.00;;;9.00
56286;BMP180;42191;47.562;9.686;2023-02-01T02:01:03;97594.00;;;9.00
56286;BMP180;42191;47.562;9.686;2023-02-01T02:03:35;97605.00;;;9.10
56286;BMP180;42191;47.562;9.686;2023-02-01T02:06:02;97603.00;;;9.10
56286;BMP180;42191;47.562;9.686;2023-02-01T02:08:30;97596.00;;;9.10
56286;BMP180;42191;47.562;9.686;2023-02-01T02:10:56;97588.00;;;9.10
56286;BMP180;42191;47.562;9.686;2023-02-01T02:13:33;97595.00;;;9.10
56286;BMP180;42191;47.562;9.686;2023-02-01T02:21:35;97580.00;;;9.10
56286;BMP180;42191;47.562;9.686;2023-02-01T02:35:47;97578.00;;;9.00
56286;BMP180;42191;47.562;9.686;2023-02-01T02:47:50;97583.00;;;9.00
56286;BMP180;42191;47.562;9.686;2023-02-01T02:53:21;97586.00;;;9.00
56286;BMP180;42191;47.562;9.686;2023-02-01T02:56:07;97583.00;;;9.00
56286;BMP180;42191;47.562;9.686;2023-02-01T02:58:54;97583.00;;;9.00
56286;BMP180;42191;47.562;9.686;2023-02-01T03:01:40;97582.00;;;9.00
56286;BMP180;42191;47.562;9.686;2023-02-01T03:04:25;97586.00;;;9.00
56286;BMP180;42191;47.562;9.686;2023-02-01T03:06:52;97569.00;;;9.00
56286;BMP180;42191;47.562;9.686;2023-02-01T03:09:27;97564.00;;;9.00
56286;BMP180;42191;47.562;9.686;2023-02-01T03:12:01;97574.00;;;9.00
56286;BMP180;42191;47.562;9.686;2023-02-01T03:14:49;97567.00;;;9.00
56286;BMP180;42191;47.562;9.686;2023-02-01T03:17:21;97566.00;;;9.00
56286;BMP180;42191;47.562;9.686;2023-02-01T03:19:50;97563.00;;;9.00
56286;BMP180;42191;47.562;9.686;2023-02-01T03:22:28;97569.00;;;9.00
56286;BMP180;42191;47.562;9.686;2023-02-01T03:25:04;97568.00;;;9.00
56286;BMP180;42191;47.562;9.686;2023-02-01T03:27:41;97572.00;;;9.00
56286;BMP180;42191;47.562;9.686;2023-02-01T03:30:21;97570.00;;;9.00
56286;BMP180;42191;47.562;9.686;2023-02-01T03:32:50;97578.00;;;9.00
56286;BMP180;42191;47.562;9.686;2023-02-01T03:35:33;97572.00;;;9.00
56286;BMP180;42191;47.562;9.686;2023-02-01T03:40:37;97569.00;;;9.00
56286;BMP180;42191;47.562;9.686;2023-02-01T03:43:06;97567.00;;;8.90
56286;BMP180;42191;47.562;9.686;2023-02-01T03:45:40;97555.00;;;8.90
56286;BMP180;42191;47.562;9.686;2023-02-01T03:48:09;97559.00;;;8.90
56286;BMP180;42191;47.562;9.686;2023-02-01T03:50:38;97552.00;;;8.90
56286;BMP180;42191;47.562;9.686;2023-02-01T03:53:11;97553.00;;;8.90
56286;BMP180;42191;47.562;9.686;2023-02-01T03:55:39;97554.00;;;8.90
56286;BMP180;42191;47.562;9.686;2023-02-01T03:58:20;97558.00;;;8.90
56286;BMP180;42191;47.562;9.686;2023-02-01T04:00:55;97553.00;;;8.90
56286;BMP180;42191;47.562;9.686;2023-02-01T04:03:22;97550.00;;;8.90
56286;BMP180;42191;47.562;9.686;2023-02-01T04:05:49;97548.00;;;8.90
56286;BMP180;42191;47.562;9.686;2023-02-01T04:08:15;97550.00;;;8.90
56286;BMP180;42191;47.562;9.686;2023-02-01T04:10:42;97552.00;;;8.90
56286;BMP180;42191;47.562;9.686;2023-02-01T04:13:08;97558.00;;;8.90
56286;BMP180;42191;47.562;9.686;2023-02-01T04:15:34;97549.00;;;9.00
56286;BMP180;42191;47.562;9.686;2023-02-01T04:18:00;97563.00;;;9.00
56286;BMP180;42191;47.562;9.686;2023-02-01T04:20:27;97562.00;;;9.00
56286;BMP180;42191;47.562;9.686;2023-02-01T04:22:53;97569.00;;;9.00
56286;BMP180;42191;47.562;9.686;2023-02-01T04:25:19;97568.00;;;9.00
56286;BMP180;42191;47.562;9.686;2023-02-01T04:27:46;97580.00;;;9.00
56286;BMP180;42191;47.562;9.686;2023-02-01T04:30:13;97574.00;;;9.00
56286;BMP180;42191;47.562;9.686;2023-02-01T04:32:39;97576.00;;;9.10
56286;BMP180;42191;47.562;9.686;2023-02-01T04:35:06;97573.00;;;9.10
56286;BMP180;42191;47.562;9.686;2023-02-01T04:37:33;97573.00;;;9.10
56286;BMP180;42191;47.562;9.686;2023-02-01T04:39:59;97583.00;;;9.10
56286;BMP180;42191;47.562;9.686;2023-02-01T04:42:25;97579.00;;;9.10
56286;BMP180;42191;47.562;9.686;2023-02-01T04:44:51;97571.00;;;9.10
56286;BMP180;42191;47.562;9.686;2023-02-01T04:47:17;97588.00;;;9.10
56286;BMP180;42191;47.562;9.686;2023-02-01T04:49:43;97595.00;;;9.10
56286;BMP180;42191;47.562;9.686;2023-02-01T04:52:09;97605.00;;;9.10
56286;BMP180;42191;47.562;9.686;2023-02-01T04:54:35;97606.00;;;9.10
56286;BMP180;42191;47.562;9.686;2023-02-01T04:57:02;97609.00;;;9.10
56286;BMP180;42191;47.562;9.686;2023-02-01T04:59:28;97613.00;;;9.10
56286;BMP180;42191;47.562;9.686;2023-02-01T05:01:54;97625.00;;;9.10
56286;BMP180;42191;47.562;9.686;2023-02-01T05:04:20;97619.00;;;9.10
56286;BMP180;42191;47.562;9.686;2023-02-01T05:06:46;97621.00;;;9.10
56286;BMP180;42191;47.562;9.686;2023-02-01T05:09:12;97641.00;;;9.10
56286;BMP180;42191;47.562;9.686;2023-02-01T05:11:39;97642.00;;;9.10
56286;BMP180;42191;47.562;9.686;2023-02-01T05:14:23;97644.00;;;9.10
56286;BMP180;42191;47.562;9.686;2023-02-01T05:16:49;97634.00;;;9.10
56286;BMP180;42191;47.562;9.686;2023-02-01T05:19:16;97628.00;;;9.10
56286;BMP180;42191;47.562;9.686;2023-02-01T05:21:42;97619.00;;;9.10
56286;BMP180;42191;47.562;9.686;2023-02-01T05:24:08;97612.00;;;9.10
56286;BMP180;42191;47.562;9.686;2023-02-01T05:26:45;97601.00;;;9.10
56286;BMP180;42191;47.562;9.686;2023-02-01T05:29:12;97600.00;;;9.10
56286;BMP180;42191;47.562;9.686;2023-02-01T05:31:38;97597.00;;;9.10
56286;BMP180;42191;47.562;9.686;2023-02-01T05:34:05;97608.00;;;9.10
56286;BMP180;42191;47.562;9.686;2023-02-01T05:36:32;97610.00;;;9.10
56286;BMP180;42191;47.562;9.686;2023-02-01T05:38:58;97602.00;;;9.10
56286;BMP180;42191;47.562;9.686;2023-02-01T05:41:24;97573.00;;;9.10
56286;BMP180;42191;47.562;9.686;2023-02-01T05:43:50;97576.00;;;9.10
56286;BMP180;42191;47.562;9.686;2023-02-01T05:46:16;97589.00;;;9.10
56286;BMP180;42191;47.562;9.686;2023-02-01T05:48:43;97585.00;;;9.10
56286;BMP180;42191;47.562;9.686;2023-02-01T05:51:10;97591.00;;;9.10
56286;BMP180;42191;47.562;9.686;2023-02-01T05:53:36;97598.00;;;9.20
56286;BMP180;42191;47.562;9.686;2023-02-01T05:56:03;97604.00;;;9.20
56286;BMP180;42191;47.562;9.686;2023-02-01T05:58:30;97615.00;;;9.20
56286;BMP180;42191;47.562;9.686;2023-02-01T06:00:58;97620.00;;;9.20
56286;BMP180;42191;47.562;9.686;2023-02-01T06:03:24;97628.00;;;9.20
56286;BMP180;42191;47.562;9.686;2023-02-01T06:05:50;97639.00;;;9.20
56286;BMP180;42191;47.562;9.686;2023-02-01T06:08:16;97626.00;;;9.20
56286;BMP180;42191;47.562;9.686;2023-02-01T06:10:43;97617.00;;;9.20
56286;BMP180;42191;47.562;9.686;2023-02-01T06:13:09;97618.00;;;9.30
56286;BMP180;42191;47.562;9.686;2023-02-01T06:15:42;97615.00;;;9.30
56286;BMP180;42191;47.562;9.686;2023-02-01T06:18:09;97616.00;;;9.30
56286;BMP180;42191;47.562;9.686;2023-02-01T06:20:35;97615.00;;;9.30
56286;BMP180;42191;47.562;9.686;2023-02-01T06:23:02;97613.00;;;9.30
56286;BMP180;42191;47.562;9.686;2023-02-01T06:25:28;97621.00;;;9.30
56286;BMP180;42191;47.562;9.686;2023-02-01T06:27:54;97624.00;;;9.20
56286;BMP180;42191;47.562;9.686;2023-02-01T06:30:20;97619.00;;;9.20
56286;BMP180;42191;47.562;9.686;2023-02-01T06:32:51;97627.00;;;9.20
56286;BMP180;42191;47.562;9.686;2023-02-01T06:35:20;97635.00;;;9.20
56286;BMP180;42191;47.562;9.686;2023-02-01T06:37:48;97629.00;;;9.20
56286;BMP180;42191;47.562;9.686;2023-02-01T06:40:15;97643.00;;;9.20
56286;BMP180;42191;47.562;9.686;2023-02-01T06:42:41;97641.00;;;9.20
56286;BMP180;42191;47.562;9.686;2023-02-01T06:45:08;97646.00;;;9.30
56286;BMP180;42191;47.562;9.686;2023-02-01T06:47:34;97647.00;;;9.20
56286;BMP180;42191;47.562;9.686;2023-02-01T06:50:00;97649.00;;;9.30
56286;BMP180;42191;47.562;9.686;2023-02-01T06:52:26;97655.00;;;9.30
56286;BMP180;42191;47.562;9.686;2023-02-01T06:54:52;97654.00;;;9.20
56286;BMP180;42191;47.562;9.686;2023-02-01T06:57:19;97668.00;;;9.20
56286;BMP180;42191;47.562;9.686;2023-02-01T06:59:45;97676.00;;;9.20
56286;BMP180;42191;47.562;9.686;2023-02-01T07:02:14;97680.00;;;9.30
56286;BMP180;42191;47.562;9.686;2023-02-01T07:04:40;97687.00;;;9.30
56286;BMP180;42191;47.562;9.686;2023-02-01T07:07:06;97683.00;;;9.30
56286;BMP180;42191;47.562;9.686;2023-02-01T07:09:32;97693.00;;;9.40
56286;BMP180;42191;47.562;9.686;2023-02-01T07:11:58;97696.00;;;9.40
56286;BMP180;42191;47.562;9.686;2023-02-01T07:14:24;97689.00;;;9.40
56286;BMP180;42191;47.562;9.686;2023-02-01T07:16:51;97690.00;;;9.50
56286;BMP180;42191;47.562;9.686;2023-02-01T07:19:17;97700.00;;;9.50
56286;BMP180;42191;47.562;9.686;2023-02-01T07:21:43;97693.00;;;9.50
56286;BMP180;42191;47.562;9.686;2023-02-01T07:24:09;97687.00;;;9.60
56286;BMP180;42191;47.562;9.686;2023-02-01T07:26:35;97689.00;;;9.60
56286;BMP180;42191;47.562;9.686;2023-02-01T07:29:01;97694.00;;;9.60
56286;BMP180;42191;47.562;9.686;2023-02-01T07:31:27;97688.00;;;9.70
56286;BMP180;42191;47.562;9.686;2023-02-01T07:33:55;97695.00;;;9.70
56286;BMP180;42191;47.562;9.686;2023-02-01T07:36:22;97694.00;;;9.70
56286;BMP180;42191;47.562;9.686;2023-02-01T07:38:48;97699.00;;;9.70
56286;BMP180;42191;47.562;9.686;2023-02-01T07:41:15;97692.00;;;9.70
56286;BMP180;42191;47.562;9.686;2023-02-01T07:43:42;97690.00;;;9.70
56286;BMP180;42191;47.562;9.686;2023-02-01T07:46:09;97695.00;;;9.80
56286;BMP180;42191;47.562;9.686;2023-02-01T07:48:35;97682.00;;;9.80
56286;BMP180;42191;47.562;9.686;2023-02-01T07:51:04;97680.00;;;9.80
56286;BMP180;42191;47.562;9.686;2023-02-01T07:53:32;97678.00;;;9.80
56286;BMP180;42191;47.562;9.686;2023-02-01T07:55:59;97674.00;;;9.80
56286;BMP180;42191;47.562;9.686;2023-02-01T07:58:26;97682.00;;;9.80
56286;BMP180;42191;47.562;9.686;2023-02-01T08:00:53;97677.00;;;9.80
56286;BMP180;42191;47.562;9.686;2023-02-01T08:03:37;97676.00;;;9.70
56286;BMP180;42191;47.562;9.686;2023-02-01T08:06:04;97682.00;;;9.70
56286;BMP180;42191;47.562;9.686;2023-02-01T08:08:30;97680.00;;;9.70
56286;BMP180;42191;47.562;9.686;2023-02-01T08:11:01;97674.00;;;9.70
56286;BMP180;42191;47.562;9.686;2023-02-01T08:13:28;97681.00;;;9.70
56286;BMP180;42191;47.562;9.686;2023-02-01T08:15:59;97674.00;;;9.70
56286;BMP180;42191;47.562;9.686;2023-02-01T08:18:25;97667.00;;;9.70
56286;BMP180;42191;47.562;9.686;2023-02-01T08:20:51;97658.00;;;9.80
56286;BMP180;42191;47.562;9.686;2023-02-01T08:23:17;97673.00;;;9.80
56286;BMP180;42191;47.562;9.686;2023-02-01T08:25:44;97665.00;;;9.80
56286;BMP180;42191;47.562;9.686;2023-02-01T08:28:11;97664.00;;;9.80
56286;BMP180;42191;47.562;9.686;2023-02-01T08:30:37;97659.00;;;9.80
56286;BMP180;42191;47.562;9.686;2023-02-01T08:33:08;97665.00;;;9.90
56286;BMP180;42191;47.562;9.686;2023-02-01T08:35:38;97681.00;;;9.90
56286;BMP180;42191;47.562;9.686;2023-02-01T08:38:04;97671.00;;;9.90
56286;BMP180;42191;47.562;9.686;2023-02-01T08:40:31;97674.00;;;9.90
56286;BMP180;42191;47.562;9.686;2023-02-01T08:42:57;97675.00;;;9.90
56286;BMP180;42191;47.562;9.686;2023-02-01T08:45:25;97690.00;;;9.90
56286;BMP180;42191;47.562;9.686;2023-02-01T08:47:52;97689.00;;;10.00
56286;BMP180;42191;47.562;9.686;2023-02-01T08:50:19;97690.00;;;10.00
56286;BMP180;42191;47.562;9.686;2023-02-01T08:52:46;97694.00;;;10.00
56286;BMP180;42191;47.562;9.686;2023-02-01T08:55:13;97700.00;;;10.00
56286;BMP180;42191;47.562;9.686;2023-02-01T08:57:40;97686.00;;;10.00
56286;BMP180;42191;47.562;9.686;2023-02-01T09:00:14;97690.00;;;10.00
56286;BMP180;42191;47.562;9.686;2023-02-01T09:02:42;97690.00;;;10.00
56286;BMP180;42191;47.562;9.686;2023-02-01T09:05:08;97696.00;;;10.00
56286;BMP180;42191;47.562;9.686;2023-02-01T09:07:35;97701.00;;;10.00
56286;BMP180;42191;47.562;9.686;2023-02-01T09:10:02;97701.00;;;10.10
56286;BMP180;42191;47.562;9.686;2023-02-01T09:12:30;97729.00;;;10.10
56286;BMP180;42191;47.562;9.686;2023-02-01T09:14:58;97715.00;;;10.10
56286;BMP180;42191;47.562;9.686;2023-02-01T09:17:26;97722.00;;;10.10
56286;BMP180;42191;47.562;9.686;2023-02-01T09:19:52;97724.00;;;10.10
56286;BMP180;42191;47.562;9.686;2023-02-01T09:22:18;97722.00;;;10.10
56286;BMP180;42191;47.562;9.686;2023-02-01T09:24:44;97744.00;;;10.10
56286;BMP180;42191;47.562;9.686;2023-02-01T09:27:10;97744.00;;;10.10
56286;BMP180;42191;47.562;9.686;2023-02-01T09:29:36;97741.00;;;10.10
56286;BMP180;42191;47.562;9.686;2023-02-01T09:32:03;97738.00;;;10.10
56286;BMP180;42191;47.562;9.686;2023-02-01T09:34:29;97730.00;;;10.10
56286;BMP180;42191;47.562;9.686;2023-02-01T09:36:55;97746.00;;;10.10
56286;BMP180;42191;47.562;9.686;2023-02-01T09:39:21;97730.00;;;10.10
56286;BMP180;42191;47.562;9.686;2023-02-01T09:42:15;97743.00;;;10.10
56286;BMP180;42191;47.562;9.686;2023-02-01T09:47:29;97724.00;;;10.10
56286;BMP180;42191;47.562;9.686;2023-02-01T09:50:13;97723.00;;;10.10
56286;BMP180;42191;47.562;9.686;2023-02-01T09:52:43;97717.00;;;10.10
56286;BMP180;42191;47.562;9.686;2023-02-01T09:55:29;97718.00;;;10.10
56286;BMP180;42191;47.562;9.686;2023-02-01T09:58:00;97732.00;;;10.10
56286;BMP180;42191;47.562;9.686;2023-02-01T10:00:30;97733.00;;;10.20
56286;BMP180;42191;47.562;9.686;2023-02-01T10:03:00;97737.00;;;10.20
56286;BMP180;42191;47.562;9.686;2023-02-01T10:10:45;97767.00;;;10.30
56286;BMP180;42191;47.562;9.686;2023-02-01T10:13:38;97748.00;;;10.30
56286;BMP180;42191;47.562;9.686;2023-02-01T10:16:15;97741.00;;;10.30
56286;BMP180;42191;47.562;9.686;2023-02-01T10:21:58;97734.00;;;10.30
56286;BMP180;42191;47.562;9.686;2023-02-01T10:24:35;97729.00;;;10.30
56286;BMP180;42191;47.562;9.686;2023-02-01T10:29:49;97708.00;;;10.40
56286;BMP180;42191;47.562;9.686;2023-02-01T10:32:23;97704.00;;;10.40
56286;BMP180;42191;47.562;9.686;2023-02-01T10:34:58;97700.00;;;10.50
56286;BMP180;42191;47.562;9.686;2023-02-01T10:37:33;97696.00;;;10.50
56286;BMP180;42191;47.562;9.686;2023-02-01T10:42:40;97692.00;;;10.60
56286;BMP180;42191;47.562;9.686;2023-02-01T10:45:06;97693.00;;;10.60
56286;BMP180;42191;47.562;9.686;2023-02-01T10:47:32;97691.00;;;10.70
56286;BMP180;42191;47.562;9.686;2023-02-01T10:50:16;97691.00;;;10.70
56286;BMP180;42191;47.562;9.686;2023-02-01T10:52:56;97684.00;;;10.80
56286;BMP180;42191;47.562;9.686;2023-02-01T10:58:14;97687.00;;;10.80
56286;BMP180;42191;47.562;9.686;2023-02-01T11:03:44;97684.00;;;10.90
56286;BMP180;42191;47.562;9.686;2023-02-01T11:08:52;97678.00;;;11.00
56286;BMP180;42191;47.562;9.686;2023-02-01T11:11:19;97678.00;;;11.00
56286;BMP180;42191;47.562;9.686;2023-02-01T11:13:53;97678.00;;;11.00
56286;BMP180;42191;47.562;9.686;2023-02-01T11:16:20;97686.00;;;11.00
56286;BMP180;42191;47.562;9.686;2023-02-01T11:18:53;97667.00;;;11.00
56286;BMP180;42191;47.562;9.686;2023-02-01T11:21:21;97686.00;;;11.10
56286;BMP180;42191;47.562;9.686;2023-02-01T11:23:48;97664.00;;;11.10
56286;BMP180;42191;47.562;9.686;2023-02-01T11:26:25;97665.00;;;11.10
56286;BMP180;42191;47.562;9.686;2023-02-01T11:28:59;97649.00;;;11.10
56286;BMP180;42191;47.562;9.686;2023-02-01T11:31:27;97647.00;;;11.20
56286;BMP180;42191;47.562;9.686;2023-02-01T11:34:10;97650.00;;;11.20
56286;BMP180;42191;47.562;9.686;2023-02-01T11:36:39;97638.00;;;11.20
56286;BMP180;42191;47.562;9.686;2023-02-01T11:42:03;97636.00;;;11.30
56286;BMP180;42191;47.562;9.686;2023-02-01T11:44:38;97630.00;;;11.40
56286;BMP180;42191;47.562;9.686;2023-02-01T11:47:26;97629.00;;;11.40
56286;BMP180;42191;47.562;9.686;2023-02-01T11:50:17;97631.00;;;11.40
56286;BMP180;42191;47.562;9.686;2023-02-01T11:53:35;97635.00;;;11.50
56286;BMP180;42191;47.562;9.686;2023-02-01T12:06:53;97631.00;;;11.60
56286;BMP180;42191;47.562;9.686;2023-02-01T12:14:39;97620.00;;;11.60
56286;BMP180;42191;47.562;9.686;2023-02-01T12:20:22;97629.00;;;11.60
56286;BMP180;42191;47.562;9.686;2023-02-01T12:39:26;97588.00;;;11.50
56286;BMP180;42191;47.562;9.686;2023-02-01T12:42:21;97571.00;;;11.60
56286;BMP180;42191;47.562;9.686;2023-02-01T12:45:11;97574.00;;;11.60
56286;BMP180;42191;47.562;9.686;2023-02-01T12:47:53;97578.00;;;11.60
56286;BMP180;42191;47.562;9.686;2023-02-01T12:50:42;97577.00;;;11.60
56286;BMP180;42191;47.562;9.686;2023-02-01T12:53:23;97552.00;;;11.70
56286;BMP180;42191;47.562;9.686;2023-02-01T12:55:53;97545.00;;;11.70
56286;BMP180;42191;47.562;9.686;2023-02-01T12:58:35;97547.00;;;11.70
56286;BMP180;42191;47.562;9.686;2023-02-01T13:01:08;97546.00;;;11.70
56286;BMP180;42191;47.562;9.686;2023-02-01T13:03:57;97550.00;;;11.70
56286;BMP180;42191;47.562;9.686;2023-02-01T13:06:29;97540.00;;;11.60
56286;BMP180;42191;47.562;9.686;2023-02-01T13:11:37;97549.00;;;11.60
56286;BMP180;42191;47.562;9.686;2023-02-01T13:16:46;97552.00;;;11.60
56286;BMP180;42191;47.562;9.686;2023-02-01T13:19:37;97547.00;;;11.60
56286;BMP180;42191;47.562;9.686;2023-02-01T13:22:15;97532.00;;;11.60
56286;BMP180;42191;47.562;9.686;2023-02-01T13:24:52;97536.00;;;11.60
56286;BMP180;42191;47.562;9.686;2023-02-01T13:27:19;97534.00;;;11.70
56286;BMP180;42191;47.562;9.686;2023-02-01T13:29:55;97526.00;;;11.80
56286;BMP180;42191;47.562;9.686;2023-02-01T13:32:45;97520.00;;;11.80
56286;BMP180;42191;47.562;9.686;2023-02-01T13:40:39;97505.00;;;11.80
56286;BMP180;42191;47.562;9.686;2023-02-01T13:43:26;97522.00;;;11.80
56286;BMP180;42191;47.562;9.686;2023-02-01T13:45:56;97521.00;;;11.80
56286;BMP180;42191;47.562;9.686;2023-02-01T13:48:38;97529.00;;;11.70
56286;BMP180;42191;47.562;9.686;2023-02-01T13:51:05;97521.00;;;11.70
56286;BMP180;42191;47.562;9.686;2023-02-01T13:53:36;97522.00;;;11.60
56286;BMP180;42191;47.562;9.686;2023-02-01T13:56:15;97526.00;;;11.60
56286;BMP180;42191;47.562;9.686;2023-02-01T13:58:44;97537.00;;;11.60
56286;BMP180;42191;47.562;9.686;2023-02-01T14:19:25;97569.00;;;11.40
56286;BMP180;42191;47.562;9.686;2023-02-01T14:21:59;97577.00;;;11.40
56286;BMP180;42191;47.562;9.686;2023-02-01T14:24:34;97593.00;;;11.40
56286;BMP180;42191;47.562;9.686;2023-02-01T14:29:43;97585.00;;;11.30
56286;BMP180;42191;47.562;9.686;2023-02-01T14:34:52;97582.00;;;11.20
56286;BMP180;42191;47.562;9.686;2023-02-01T14:40:05;97593.00;;;11.10
56286;BMP180;42191;47.562;9.686;2023-02-01T14:47:45;97585.00;;;11.00
56286;BMP180;42191;47.562;9.686;2023-02-01T14:55:47;97587.00;;;11.00
56286;BMP180;42191;47.562;9.686;2023-02-01T15:01:30;97571.00;;;11.00
56286;BMP180;42191;47.562;9.686;2023-02-01T15:06:57;97572.00;;;11.00
56286;BMP180;42191;47.562;9.686;2023-02-01T15:12:27;97568.00;;;10.90
56286;BMP180;42191;47.562;9.686;2023-02-01T15:15:13;97586.00;;;10.90
56286;BMP180;42191;47.562;9.686;2023-02-01T15:17:39;97564.00;;;10.90
56286;BMP180;42191;47.562;9.686;2023-02-01T15:22:42;97595.00;;;10.90
56286;BMP180;42191;47.562;9.686;2023-02-01T15:25:23;97562.00;;;10.90
56286;BMP180;42191;47.562;9.686;2023-02-01T15:27:50;97576.00;;;10.80
56286;BMP180;42191;47.562;9.686;2023-02-01T15:30:29;97561.00;;;10.80
56286;BMP180;42191;47.562;9.686;2023-02-01T15:35:54;97591.00;;;10.90
56286;BMP180;42191;47.562;9.686;2023-02-01T15:43:37;97585.00;;;10.90
56286;BMP180;42191;47.562;9.686;2023-02-01T15:46:08;97588.00;;;10.90
56286;BMP180;42191;47.562;9.686;2023-02-01T15:48:39;97597.00;;;10.90
56286;BMP180;42191;47.562;9.686;2023-02-01T15:51:10;97597.00;;;10.90
56286;BMP180;42191;47.562;9.686;2023-02-01T15:53:37;97609.00;;;10.90
56286;BMP180;42191;47.562;9.686;2023-02-01T15:56:04;97609.00;;;10.90
56286;BMP180;42191;47.562;9.686;2023-02-01T15:58:31;97613.00;;;10.90
56286;BMP180;42191;47.562;9.686;2023-02-01T16:01:02;97620.00;;;10.80
56286;BMP180;42191;47.562;9.686;2023-02-01T16:03:37;97631.00;;;10.80
56286;BMP180;42191;47.562;9.686;2023-02-01T16:06:25;97640.00;;;10.80
56286;BMP180;42191;47.562;9.686;2023-02-01T16:11:30;97643.00;;;10.70
56286;BMP180;42191;47.562;9.686;2023-02-01T16:13:58;97645.00;;;10.70
56286;BMP180;42191;47.562;9.686;2023-02-01T16:16:27;97661.00;;;10.70
56286;BMP180;42191;47.562;9.686;2023-02-01T16:18:53;97657.00;;;10.70
56286;BMP180;42191;47.562;9.686;2023-02-01T16:21:20;97671.00;;;10.70
56286;BMP180;42191;47.562;9.686;2023-02-01T16:23:50;97662.00;;;10.70
56286;BMP180;42191;47.562;9.686;2023-02-01T16:26:17;97679.00;;;10.70
56286;BMP180;42191;47.562;9.686;2023-02-01T16:28:44;97677.00;;;10.70
56286;BMP180;42191;47.562;9.686;2023-02-01T16:31:13;97675.00;;;10.70
56286;BMP180;42191;47.562;9.686;2023-02-01T16:33:50;97678.00;;;10.70
56286;BMP180;42191;47.562;9.686;2023-02-01T16:36:17;97686.00;;;10.70
56286;BMP180;42191;47.562;9.686;2023-02-01T16:38:43;97691.00;;;10.70
56286;BMP180;42191;47.562;9.686;2023-02-01T16:41:13;97693.00;;;10.60
56286;BMP180;42191;47.562;9.686;2023-02-01T16:43:40;97699.00;;;10.60
56286;BMP180;42191;47.562;9.686;2023-02-01T16:46:17;97697.00;;;10.60
56286;BMP180;42191;47.562;9.686;2023-02-01T16:49:05;97693.00;;;10.60
56286;BMP180;42191;47.562;9.686;2023-02-01T16:51:40;97702.00;;;10.60
56286;BMP180;42191;47.562;9.686;2023-02-01T16:54:08;97697.00;;;10.60
56286;BMP180;42191;47.562;9.686;2023-02-01T16:56:41;97705.00;;;10.60
56286;BMP180;42191;47.562;9.686;2023-02-01T16:59:08;97711.00;;;10.50
56286;BMP180;42191;47.562;9.686;2023-02-01T17:01:34;97712.00;;;10.50
56286;BMP180;42191;47.562;9.686;2023-02-01T17:04:02;97714.00;;;10.50
56286;BMP180;42191;47.562;9.686;2023-02-01T17:06:29;97712.00;;;10.50
56286;BMP180;42191;47.562;9.686;2023-02-01T17:08:56;97705.00;;;10.50
56286;BMP180;42191;47.562;9.686;2023-02-01T17:11:26;97708.00;;;10.50
56286;BMP180;42191;47.562;9.686;2023-02-01T17:13:53;97721.00;;;10.50
56286;BMP180;42191;47.562;9.686;2023-02-01T17:16:29;97710.00;;;10.50
56286;BMP180;42191;47.562;9.686;2023-02-01T17:19:13;97704.00;;;10.50
56286;BMP180;42191;47.562;9.686;2023-02-01T17:21:49;97703.00;;;10.50